BCS25Q EDDP-LBSF
Flight info
| Callsign | BCS25Q |
|---|---|
| Flight time | 1h 55m |
| Altitude | 41000 |
| Route | DRN2E DRN Z21 OMELO DCT EVIKU DCT NAVTI DCT BEGLA DCT SVR DCT BABIT DCT XENIT DCT RAVAK DCT NISVA |
| Aircraft | B738/M-SDE2E3FGHIRWXY/LB1 |
Departure
| Time | 2026-05-06 05:25 |
|---|---|
| Airport | Leipzig/Halle Airport (EDDP) |
Arrival
| Time | 2026-05-06 07:20 |
|---|---|
| Airport | Sofia Airport (LBSF) |
| Time | Latitude | Longitude | Altitude | Speed | Heading |
|---|---|---|---|---|---|
| 2026-05-06 05:04 | 51.40826 | 12.23086 | 466 ft | 0 kts | 265° |
| 2026-05-06 05:05 | 51.40826 | 12.23087 | 466 ft | 0 kts | 265° |
| 2026-05-06 05:17 | 51.40826 | 12.23098 | 466 ft | 4 kts | 265° |
| 2026-05-06 05:17 | 51.40828 | 12.23141 | 466 ft | 4 kts | 265° |
| 2026-05-06 05:18 | 51.40830 | 12.23175 | 461 ft | 4 kts | 277° |
| 2026-05-06 05:18 | 51.40820 | 12.23202 | 465 ft | 4 kts | 350° |
| 2026-05-06 05:18 | 51.40796 | 12.23205 | 465 ft | 2 kts | 355° |
| 2026-05-06 05:18 | 51.40795 | 12.23206 | 465 ft | 1 kts | 355° |
| 2026-05-06 05:20 | 51.40816 | 12.23202 | 465 ft | 5 kts | 354° |
| 2026-05-06 05:21 | 51.40866 | 12.23196 | 466 ft | 9 kts | 356° |
| 2026-05-06 05:21 | 51.40937 | 12.23187 | 468 ft | 11 kts | 355° |
| 2026-05-06 05:21 | 51.41008 | 12.23164 | 468 ft | 11 kts | 321° |
| 2026-05-06 05:21 | 51.41021 | 12.23025 | 468 ft | 16 kts | 267° |
| 2026-05-06 05:22 | 51.41010 | 12.22810 | 466 ft | 21 kts | 266° |
| 2026-05-06 05:22 | 51.41000 | 12.22568 | 463 ft | 23 kts | 265° |
| 2026-05-06 05:22 | 51.41012 | 12.22333 | 458 ft | 18 kts | 322° |
| 2026-05-06 05:22 | 51.41069 | 12.22164 | 458 ft | 20 kts | 266° |
| 2026-05-06 05:23 | 51.41058 | 12.21927 | 458 ft | 23 kts | 265° |
| 2026-05-06 05:23 | 51.41045 | 12.21653 | 456 ft | 26 kts | 266° |
| 2026-05-06 05:23 | 51.41014 | 12.20996 | 436 ft | 30 kts | 266° |
| 2026-05-06 05:24 | 51.41010 | 12.20754 | 439 ft | 16 kts | 287° |
| 2026-05-06 05:24 | 51.41090 | 12.20708 | 427 ft | 15 kts | 31° |
| 2026-05-06 05:24 | 51.41161 | 12.20835 | 432 ft | 15 kts | 60° |
| 2026-05-06 05:24 | 51.41185 | 12.20970 | 439 ft | 6 kts | 84° |
| 2026-05-06 05:25 | 51.41199 | 12.21283 | 448 ft | 61 kts | 85° |
| 2026-05-06 05:25 | 51.41248 | 12.22324 | 459 ft | 124 kts | 86° |
| 2026-05-06 05:25 | 51.41331 | 12.23961 | 584 ft | 165 kts | 84° |
| 2026-05-06 05:25 | 51.41418 | 12.25675 | 1613 ft | 152 kts | 83° |
| 2026-05-06 05:26 | 51.41497 | 12.27452 | 2278 ft | 169 kts | 85° |
| 2026-05-06 05:26 | 51.41583 | 12.29519 | 2572 ft | 201 kts | 86° |
| 2026-05-06 05:26 | 51.41689 | 12.31891 | 2763 ft | 225 kts | 86° |
| 2026-05-06 05:26 | 51.41805 | 12.34497 | 3105 ft | 242 kts | 86° |
| 2026-05-06 05:27 | 51.41927 | 12.37225 | 3597 ft | 250 kts | 86° |
| 2026-05-06 05:27 | 51.42060 | 12.40085 | 4014 ft | 267 kts | 86° |
| 2026-05-06 05:27 | 51.42199 | 12.43104 | 4616 ft | 275 kts | 86° |
| 2026-05-06 05:27 | 51.42343 | 12.46201 | 5298 ft | 281 kts | 85° |
| 2026-05-06 05:28 | 51.42489 | 12.49324 | 6088 ft | 283 kts | 85° |
| 2026-05-06 05:28 | 51.42638 | 12.52501 | 6788 ft | 288 kts | 86° |
| 2026-05-06 05:28 | 51.42698 | 12.55724 | 7527 ft | 293 kts | 99° |
| 2026-05-06 05:28 | 51.42009 | 12.58810 | 8135 ft | 298 kts | 123° |
| 2026-05-06 05:29 | 51.40923 | 12.61653 | 8933 ft | 300 kts | 126° |
| 2026-05-06 05:29 | 51.39785 | 12.64484 | 9724 ft | 304 kts | 127° |
| 2026-05-06 05:29 | 51.38611 | 12.67377 | 10240 ft | 320 kts | 127° |
| 2026-05-06 05:29 | 51.37351 | 12.70482 | 10502 ft | 342 kts | 126° |
| 2026-05-06 05:30 | 51.36066 | 12.73677 | 11139 ft | 349 kts | 126° |
| 2026-05-06 05:30 | 51.34756 | 12.76954 | 11937 ft | 351 kts | 126° |
| 2026-05-06 05:30 | 51.33431 | 12.80276 | 12674 ft | 357 kts | 127° |
| 2026-05-06 05:30 | 51.32090 | 12.83641 | 13504 ft | 360 kts | 127° |
| 2026-05-06 05:31 | 51.30738 | 12.87030 | 14301 ft | 362 kts | 127° |
| 2026-05-06 05:31 | 51.29380 | 12.90434 | 15116 ft | 365 kts | 127° |
| 2026-05-06 05:31 | 51.28008 | 12.93867 | 15929 ft | 367 kts | 127° |
| 2026-05-06 05:31 | 51.26628 | 12.97314 | 16680 ft | 370 kts | 127° |
| 2026-05-06 05:32 | 51.25239 | 13.00781 | 17581 ft | 371 kts | 127° |
| 2026-05-06 05:32 | 51.23844 | 13.04255 | 18310 ft | 374 kts | 127° |
| 2026-05-06 05:32 | 51.22430 | 13.07772 | 18927 ft | 379 kts | 127° |
| 2026-05-06 05:32 | 51.21001 | 13.11324 | 19566 ft | 383 kts | 127° |
| 2026-05-06 05:33 | 51.19555 | 13.14916 | 20214 ft | 386 kts | 127° |
| 2026-05-06 05:33 | 51.18100 | 13.18520 | 20872 ft | 389 kts | 127° |
| 2026-05-06 05:33 | 51.16628 | 13.22165 | 21514 ft | 393 kts | 126° |
| 2026-05-06 05:33 | 51.15157 | 13.25856 | 22132 ft | 396 kts | 126° |
| 2026-05-06 05:34 | 51.13682 | 13.29578 | 22741 ft | 400 kts | 126° |
| 2026-05-06 05:34 | 51.12192 | 13.33342 | 23323 ft | 404 kts | 126° |
| 2026-05-06 05:34 | 51.10685 | 13.37142 | 23810 ft | 407 kts | 126° |
| 2026-05-06 05:34 | 51.09171 | 13.40954 | 24347 ft | 408 kts | 127° |
| 2026-05-06 05:35 | 51.07649 | 13.44773 | 24911 ft | 409 kts | 127° |
| 2026-05-06 05:35 | 51.06119 | 13.48608 | 25412 ft | 412 kts | 127° |
| 2026-05-06 05:35 | 51.04584 | 13.52447 | 25877 ft | 415 kts | 127° |
| 2026-05-06 05:35 | 51.03027 | 13.56335 | 26361 ft | 418 kts | 128° |
| 2026-05-06 05:36 | 51.01463 | 13.60234 | 26837 ft | 420 kts | 128° |
| 2026-05-06 05:36 | 50.99888 | 13.64164 | 27144 ft | 426 kts | 128° |
| 2026-05-06 05:36 | 50.98285 | 13.68164 | 27500 ft | 431 kts | 128° |
| 2026-05-06 05:36 | 50.96676 | 13.72187 | 27975 ft | 433 kts | 128° |
| 2026-05-06 05:37 | 50.95061 | 13.76218 | 28444 ft | 434 kts | 128° |
| 2026-05-06 05:37 | 50.93430 | 13.80272 | 28852 ft | 437 kts | 129° |
| 2026-05-06 05:37 | 50.91695 | 13.84204 | 29220 ft | 436 kts | 133° |
| 2026-05-06 05:37 | 50.89820 | 13.88001 | 29600 ft | 438 kts | 135° |
| 2026-05-06 05:38 | 50.87924 | 13.91750 | 29958 ft | 440 kts | 135° |
| 2026-05-06 05:38 | 50.86020 | 13.95565 | 30308 ft | 442 kts | 134° |
| 2026-05-06 05:38 | 50.84130 | 13.99378 | 30673 ft | 442 kts | 135° |
| 2026-05-06 05:38 | 50.82051 | 14.02904 | 31024 ft | 436 kts | 142° |
| 2026-05-06 05:39 | 50.79822 | 14.06126 | 31486 ft | 432 kts | 143° |
| 2026-05-06 05:39 | 50.77614 | 14.09232 | 31991 ft | 429 kts | 143° |
| 2026-05-06 05:39 | 50.75396 | 14.12346 | 32490 ft | 426 kts | 143° |
| 2026-05-06 05:39 | 50.73155 | 14.15511 | 32910 ft | 425 kts | 143° |
| 2026-05-06 05:40 | 50.71002 | 14.18576 | 33470 ft | 419 kts | 142° |
| 2026-05-06 05:40 | 50.68845 | 14.21660 | 33819 ft | 420 kts | 143° |
| 2026-05-06 05:40 | 50.64474 | 14.27914 | 34121 ft | 428 kts | 142° |
| 2026-05-06 05:41 | 50.62280 | 14.31056 | 34484 ft | 426 kts | 142° |
| 2026-05-06 05:41 | 50.60090 | 14.34191 | 34801 ft | 425 kts | 143° |
| 2026-05-06 05:41 | 50.57898 | 14.37322 | 35037 ft | 427 kts | 143° |
| 2026-05-06 05:41 | 50.55688 | 14.40472 | 35287 ft | 428 kts | 143° |
| 2026-05-06 05:42 | 50.53486 | 14.43609 | 35577 ft | 428 kts | 143° |
| 2026-05-06 05:42 | 50.51290 | 14.46734 | 35870 ft | 427 kts | 143° |
| 2026-05-06 05:42 | 50.49080 | 14.49872 | 36103 ft | 429 kts | 143° |
| 2026-05-06 05:42 | 50.46865 | 14.53009 | 36310 ft | 429 kts | 144° |
| 2026-05-06 05:43 | 50.44543 | 14.55903 | 36517 ft | 426 kts | 151° |
| 2026-05-06 05:43 | 50.42074 | 14.58476 | 36780 ft | 425 kts | 152° |
| 2026-05-06 05:43 | 50.37079 | 14.63462 | 36786 ft | 431 kts | 153° |
| 2026-05-06 05:44 | 50.32005 | 14.68536 | 36776 ft | 427 kts | 153° |
| 2026-05-06 05:44 | 50.27045 | 14.73553 | 36796 ft | 423 kts | 152° |
| 2026-05-06 05:45 | 50.22148 | 14.78517 | 36802 ft | 423 kts | 152° |
| 2026-05-06 05:45 | 50.17212 | 14.83513 | 36772 ft | 424 kts | 153° |
| 2026-05-06 05:46 | 50.12253 | 14.88524 | 36788 ft | 424 kts | 153° |
| 2026-05-06 05:46 | 50.07462 | 14.93351 | 36799 ft | 424 kts | 153° |
| 2026-05-06 05:47 | 50.02502 | 14.98335 | 36796 ft | 425 kts | 153° |
| 2026-05-06 05:47 | 49.97530 | 15.03319 | 36794 ft | 426 kts | 153° |
| 2026-05-06 05:48 | 49.92541 | 15.08308 | 36793 ft | 426 kts | 153° |
| 2026-05-06 05:48 | 49.87583 | 15.13254 | 36760 ft | 427 kts | 153° |
| 2026-05-06 05:49 | 49.82592 | 15.18222 | 36788 ft | 426 kts | 153° |
| 2026-05-06 05:49 | 49.77603 | 15.23174 | 36797 ft | 426 kts | 153° |
| 2026-05-06 05:50 | 49.72614 | 15.28114 | 36798 ft | 426 kts | 153° |
| 2026-05-06 05:50 | 49.67622 | 15.33044 | 36797 ft | 426 kts | 153° |
| 2026-05-06 05:51 | 49.62631 | 15.37962 | 36799 ft | 426 kts | 153° |
| 2026-05-06 05:51 | 49.57641 | 15.42865 | 36799 ft | 425 kts | 154° |
| 2026-05-06 05:52 | 49.52668 | 15.47743 | 36806 ft | 424 kts | 154° |
| 2026-05-06 05:52 | 49.47695 | 15.52607 | 36803 ft | 423 kts | 154° |
| 2026-05-06 05:53 | 49.42731 | 15.57450 | 36820 ft | 422 kts | 154° |
| 2026-05-06 05:53 | 49.37775 | 15.62274 | 36808 ft | 422 kts | 154° |
| 2026-05-06 05:54 | 49.32820 | 15.67084 | 36801 ft | 421 kts | 154° |
| 2026-05-06 05:54 | 49.27871 | 15.71878 | 36810 ft | 420 kts | 154° |
| 2026-05-06 05:55 | 49.22932 | 15.76651 | 36815 ft | 420 kts | 154° |
| 2026-05-06 05:55 | 49.17987 | 15.81416 | 36816 ft | 420 kts | 154° |
| 2026-05-06 05:56 | 49.13075 | 15.86139 | 36820 ft | 420 kts | 154° |
| 2026-05-06 05:56 | 49.08118 | 15.90895 | 36812 ft | 421 kts | 154° |
| 2026-05-06 05:57 | 49.03157 | 15.95644 | 36853 ft | 422 kts | 154° |
| 2026-05-06 05:57 | 48.98178 | 16.00398 | 36842 ft | 423 kts | 154° |
| 2026-05-06 05:58 | 48.93196 | 16.05144 | 36834 ft | 423 kts | 154° |
| 2026-05-06 05:58 | 48.88205 | 16.09887 | 36836 ft | 423 kts | 154° |
| 2026-05-06 05:59 | 48.84048 | 16.13830 | 36829 ft | 424 kts | 154° |
| 2026-05-06 05:59 | 48.79034 | 16.18577 | 36827 ft | 425 kts | 154° |
| 2026-05-06 06:00 | 48.74027 | 16.23370 | 36828 ft | 426 kts | 153° |
| 2026-05-06 06:00 | 48.69061 | 16.28286 | 36831 ft | 427 kts | 152° |
| 2026-05-06 06:01 | 48.64092 | 16.33211 | 36824 ft | 427 kts | 152° |
| 2026-05-06 06:01 | 48.59113 | 16.38116 | 36834 ft | 427 kts | 152° |
| 2026-05-06 06:02 | 48.54122 | 16.43012 | 36825 ft | 428 kts | 152° |
| 2026-05-06 06:02 | 48.49131 | 16.47892 | 36838 ft | 428 kts | 152° |
| 2026-05-06 06:03 | 48.44130 | 16.52771 | 36837 ft | 429 kts | 152° |
| 2026-05-06 06:03 | 48.39121 | 16.57646 | 36836 ft | 429 kts | 152° |
| 2026-05-06 06:04 | 48.34108 | 16.62512 | 36860 ft | 429 kts | 152° |
| 2026-05-06 06:04 | 48.29088 | 16.67375 | 36860 ft | 430 kts | 152° |
| 2026-05-06 06:05 | 48.24085 | 16.72209 | 36874 ft | 431 kts | 152° |
| 2026-05-06 06:05 | 48.19038 | 16.77075 | 36874 ft | 432 kts | 152° |
| 2026-05-06 06:06 | 48.13989 | 16.81932 | 36876 ft | 432 kts | 152° |
| 2026-05-06 06:06 | 48.08928 | 16.86788 | 36871 ft | 432 kts | 152° |
| 2026-05-06 06:07 | 48.03860 | 16.91640 | 36853 ft | 432 kts | 152° |
| 2026-05-06 06:07 | 47.98790 | 16.96483 | 36866 ft | 432 kts | 152° |
| 2026-05-06 06:08 | 47.93729 | 17.01305 | 36868 ft | 432 kts | 152° |
| 2026-05-06 06:08 | 47.88668 | 17.06117 | 36865 ft | 432 kts | 152° |
| 2026-05-06 06:09 | 47.83600 | 17.10924 | 36864 ft | 431 kts | 153° |
| 2026-05-06 06:09 | 47.78599 | 17.15877 | 36853 ft | 432 kts | 150° |
| 2026-05-06 06:10 | 47.73656 | 17.20981 | 36861 ft | 433 kts | 150° |
| 2026-05-06 06:10 | 47.68709 | 17.26069 | 36868 ft | 433 kts | 150° |
| 2026-05-06 06:11 | 47.63741 | 17.31136 | 36876 ft | 433 kts | 150° |
| 2026-05-06 06:11 | 47.58764 | 17.36185 | 36888 ft | 434 kts | 150° |
| 2026-05-06 06:12 | 47.53776 | 17.41230 | 36882 ft | 434 kts | 150° |
| 2026-05-06 06:12 | 47.48782 | 17.46272 | 36902 ft | 435 kts | 150° |
| 2026-05-06 06:13 | 47.43772 | 17.51316 | 36910 ft | 436 kts | 150° |
| 2026-05-06 06:13 | 47.38757 | 17.56355 | 36913 ft | 436 kts | 150° |
| 2026-05-06 06:14 | 47.33770 | 17.61355 | 36912 ft | 437 kts | 150° |
| 2026-05-06 06:14 | 47.28737 | 17.66388 | 36890 ft | 437 kts | 150° |
| 2026-05-06 06:15 | 47.23702 | 17.71412 | 36899 ft | 437 kts | 150° |
| 2026-05-06 06:15 | 47.18666 | 17.76425 | 36906 ft | 437 kts | 150° |
| 2026-05-06 06:16 | 47.13713 | 17.81344 | 36907 ft | 438 kts | 150° |
| 2026-05-06 06:16 | 47.08714 | 17.86297 | 36900 ft | 439 kts | 150° |
| 2026-05-06 06:17 | 47.03655 | 17.91298 | 36912 ft | 439 kts | 150° |
| 2026-05-06 06:17 | 46.98585 | 17.96299 | 36907 ft | 439 kts | 150° |
| 2026-05-06 06:18 | 46.93503 | 18.01301 | 36915 ft | 440 kts | 150° |
| 2026-05-06 06:18 | 46.88413 | 18.06300 | 36920 ft | 441 kts | 150° |
| 2026-05-06 06:19 | 46.83313 | 18.11295 | 36928 ft | 441 kts | 150° |
| 2026-05-06 06:19 | 46.78200 | 18.16122 | 36934 ft | 441 kts | 152° |
| 2026-05-06 06:20 | 46.73033 | 18.20832 | 36929 ft | 441 kts | 152° |
| 2026-05-06 06:20 | 46.67827 | 18.25576 | 36932 ft | 442 kts | 152° |
| 2026-05-06 06:21 | 46.62612 | 18.30341 | 36936 ft | 443 kts | 152° |
| 2026-05-06 06:21 | 46.57390 | 18.35112 | 36935 ft | 443 kts | 152° |
| 2026-05-06 06:22 | 46.52169 | 18.39873 | 36948 ft | 444 kts | 152° |
| 2026-05-06 06:22 | 46.46928 | 18.44642 | 36927 ft | 444 kts | 152° |
| 2026-05-06 06:23 | 46.41693 | 18.49394 | 36955 ft | 445 kts | 152° |
| 2026-05-06 06:23 | 46.36441 | 18.54149 | 36952 ft | 445 kts | 152° |
| 2026-05-06 06:24 | 46.31179 | 18.58902 | 36958 ft | 446 kts | 152° |
| 2026-05-06 06:24 | 46.25912 | 18.63650 | 36946 ft | 447 kts | 152° |
| 2026-05-06 06:25 | 46.20636 | 18.68395 | 36947 ft | 447 kts | 152° |
| 2026-05-06 06:26 | 46.12723 | 18.75492 | 36967 ft | 446 kts | 152° |
| 2026-05-06 06:26 | 46.07453 | 18.80204 | 36967 ft | 446 kts | 152° |
| 2026-05-06 06:27 | 46.02215 | 18.84878 | 36989 ft | 446 kts | 152° |
| 2026-05-06 06:27 | 45.96937 | 18.89578 | 36979 ft | 446 kts | 152° |
| 2026-05-06 06:28 | 45.91746 | 18.94449 | 36979 ft | 449 kts | 145° |
| 2026-05-06 06:28 | 45.86952 | 19.00245 | 36992 ft | 451 kts | 142° |
| 2026-05-06 06:29 | 45.82226 | 19.06135 | 36982 ft | 452 kts | 142° |
| 2026-05-06 06:29 | 45.77434 | 19.12024 | 36987 ft | 452 kts | 143° |
| 2026-05-06 06:30 | 45.72621 | 19.17861 | 36974 ft | 453 kts | 143° |
| 2026-05-06 06:30 | 45.67802 | 19.23670 | 36991 ft | 454 kts | 143° |
| 2026-05-06 06:31 | 45.62969 | 19.29481 | 36995 ft | 455 kts | 143° |
| 2026-05-06 06:31 | 45.58120 | 19.35299 | 36993 ft | 456 kts | 143° |
| 2026-05-06 06:32 | 45.53260 | 19.41117 | 36996 ft | 456 kts | 143° |
| 2026-05-06 06:32 | 45.48389 | 19.46936 | 36986 ft | 457 kts | 143° |
| 2026-05-06 06:33 | 45.43516 | 19.52745 | 36999 ft | 457 kts | 143° |
| 2026-05-06 06:33 | 45.38647 | 19.58534 | 36999 ft | 456 kts | 143° |
| 2026-05-06 06:34 | 45.33774 | 19.64315 | 37000 ft | 456 kts | 143° |
| 2026-05-06 06:34 | 45.28903 | 19.70080 | 36997 ft | 456 kts | 143° |
| 2026-05-06 06:35 | 45.24063 | 19.75795 | 37003 ft | 455 kts | 143° |
| 2026-05-06 06:35 | 45.19197 | 19.81528 | 37008 ft | 455 kts | 143° |
| 2026-05-06 06:36 | 45.14331 | 19.87247 | 37008 ft | 455 kts | 143° |
| 2026-05-06 06:36 | 45.09457 | 19.92962 | 37010 ft | 455 kts | 143° |
| 2026-05-06 06:37 | 45.04577 | 19.98672 | 37005 ft | 455 kts | 143° |
| 2026-05-06 06:37 | 44.99689 | 20.04378 | 37021 ft | 456 kts | 143° |
| 2026-05-06 06:38 | 44.94789 | 20.10085 | 37020 ft | 456 kts | 143° |
| 2026-05-06 06:38 | 44.89889 | 20.15779 | 37023 ft | 457 kts | 143° |
| 2026-05-06 06:39 | 44.84977 | 20.21473 | 37012 ft | 458 kts | 142° |
| 2026-05-06 06:39 | 44.80052 | 20.27170 | 37025 ft | 458 kts | 142° |
| 2026-05-06 06:40 | 44.75119 | 20.32863 | 37024 ft | 459 kts | 143° |
| 2026-05-06 06:40 | 44.70176 | 20.38556 | 37015 ft | 459 kts | 143° |
| 2026-05-06 06:41 | 44.65224 | 20.44244 | 37026 ft | 460 kts | 142° |
| 2026-05-06 06:41 | 44.60266 | 20.49928 | 37027 ft | 461 kts | 142° |
| 2026-05-06 06:42 | 44.55295 | 20.55614 | 37027 ft | 461 kts | 142° |
| 2026-05-06 06:42 | 44.50320 | 20.61290 | 37028 ft | 461 kts | 142° |
| 2026-05-06 06:43 | 44.45336 | 20.66966 | 37017 ft | 462 kts | 142° |
| 2026-05-06 06:43 | 44.40383 | 20.72593 | 37028 ft | 462 kts | 142° |
| 2026-05-06 06:44 | 44.35399 | 20.78245 | 37035 ft | 462 kts | 142° |
| 2026-05-06 06:44 | 44.30472 | 20.84013 | 37033 ft | 463 kts | 139° |
| 2026-05-06 06:45 | 44.25746 | 20.90117 | 37044 ft | 463 kts | 138° |
| 2026-05-06 06:45 | 44.21043 | 20.96261 | 37038 ft | 464 kts | 138° |
| 2026-05-06 06:46 | 44.16316 | 21.02366 | 37041 ft | 464 kts | 138° |
| 2026-05-06 06:46 | 44.11568 | 21.08449 | 37045 ft | 464 kts | 138° |
| 2026-05-06 06:47 | 44.06811 | 21.14519 | 37047 ft | 464 kts | 139° |
| 2026-05-06 06:47 | 44.02047 | 21.20586 | 37047 ft | 465 kts | 138° |
| 2026-05-06 06:48 | 43.97280 | 21.26646 | 37053 ft | 465 kts | 138° |
| 2026-05-06 06:48 | 43.93309 | 21.31683 | 37046 ft | 465 kts | 138° |
| 2026-05-06 06:49 | 43.88529 | 21.37736 | 37054 ft | 465 kts | 139° |
| 2026-05-06 06:49 | 43.83740 | 21.43785 | 37062 ft | 466 kts | 138° |
| 2026-05-06 06:50 | 43.78930 | 21.49847 | 36750 ft | 472 kts | 138° |
| 2026-05-06 06:50 | 43.76507 | 21.52896 | 36283 ft | 470 kts | 138° |
| 2026-05-06 06:50 | 43.74093 | 21.55932 | 35772 ft | 468 kts | 138° |
| 2026-05-06 06:50 | 43.71691 | 21.58948 | 35377 ft | 464 kts | 138° |
| 2026-05-06 06:51 | 43.69312 | 21.61936 | 34960 ft | 461 kts | 137° |
| 2026-05-06 06:51 | 43.67081 | 21.65114 | 34496 ft | 459 kts | 131° |
| 2026-05-06 06:51 | 43.65030 | 21.68477 | 34094 ft | 457 kts | 128° |
| 2026-05-06 06:51 | 43.63039 | 21.71869 | 33617 ft | 455 kts | 128° |
| 2026-05-06 06:52 | 43.61065 | 21.75258 | 33188 ft | 452 kts | 128° |
| 2026-05-06 06:52 | 43.59097 | 21.78619 | 32781 ft | 449 kts | 128° |
| 2026-05-06 06:52 | 43.57158 | 21.81900 | 32373 ft | 446 kts | 129° |
| 2026-05-06 06:52 | 43.55196 | 21.85188 | 31989 ft | 442 kts | 129° |
| 2026-05-06 06:53 | 43.53240 | 21.88447 | 31592 ft | 440 kts | 129° |
| 2026-05-06 06:53 | 43.51294 | 21.91676 | 31206 ft | 437 kts | 129° |
| 2026-05-06 06:53 | 43.49360 | 21.94880 | 30817 ft | 434 kts | 129° |
| 2026-05-06 06:53 | 43.47432 | 21.98065 | 30432 ft | 431 kts | 129° |
| 2026-05-06 06:54 | 43.45518 | 22.01226 | 30049 ft | 429 kts | 130° |
| 2026-05-06 06:54 | 43.43610 | 22.04374 | 29597 ft | 426 kts | 130° |
| 2026-05-06 06:54 | 43.41719 | 22.07491 | 29184 ft | 422 kts | 130° |
| 2026-05-06 06:54 | 43.39848 | 22.10573 | 28785 ft | 418 kts | 130° |
| 2026-05-06 06:55 | 43.37993 | 22.13625 | 28379 ft | 414 kts | 130° |
| 2026-05-06 06:55 | 43.36150 | 22.16655 | 27994 ft | 411 kts | 130° |
| 2026-05-06 06:55 | 43.34323 | 22.19654 | 27604 ft | 408 kts | 130° |
| 2026-05-06 06:55 | 43.32509 | 22.22629 | 27200 ft | 405 kts | 130° |
| 2026-05-06 06:56 | 43.30711 | 22.25576 | 26821 ft | 401 kts | 130° |
| 2026-05-06 06:56 | 43.28925 | 22.28498 | 26439 ft | 398 kts | 130° |
| 2026-05-06 06:56 | 43.27149 | 22.31403 | 26057 ft | 395 kts | 130° |
| 2026-05-06 06:56 | 43.25390 | 22.34279 | 25680 ft | 392 kts | 130° |
| 2026-05-06 06:57 | 43.23644 | 22.37127 | 25304 ft | 389 kts | 130° |
| 2026-05-06 06:57 | 43.21906 | 22.39961 | 24942 ft | 386 kts | 130° |
| 2026-05-06 06:57 | 43.20191 | 22.42754 | 24579 ft | 383 kts | 130° |
| 2026-05-06 06:57 | 43.18480 | 22.45539 | 24214 ft | 381 kts | 130° |
| 2026-05-06 06:58 | 43.16783 | 22.48298 | 23853 ft | 378 kts | 130° |
| 2026-05-06 06:58 | 43.15094 | 22.51041 | 23452 ft | 375 kts | 130° |
| 2026-05-06 06:58 | 43.13418 | 22.53762 | 23032 ft | 372 kts | 130° |
| 2026-05-06 06:58 | 43.11758 | 22.56455 | 22666 ft | 368 kts | 130° |
| 2026-05-06 06:59 | 43.10134 | 22.59084 | 22296 ft | 365 kts | 130° |
| 2026-05-06 06:59 | 43.08505 | 22.61721 | 21940 ft | 361 kts | 130° |
| 2026-05-06 06:59 | 43.06889 | 22.64334 | 21581 ft | 358 kts | 130° |
| 2026-05-06 06:59 | 43.05292 | 22.66915 | 21225 ft | 355 kts | 130° |
| 2026-05-06 07:00 | 43.03705 | 22.69477 | 20865 ft | 352 kts | 130° |
| 2026-05-06 07:00 | 43.02127 | 22.72025 | 20516 ft | 349 kts | 130° |
| 2026-05-06 07:00 | 43.00562 | 22.74548 | 20172 ft | 347 kts | 130° |
| 2026-05-06 07:00 | 42.99006 | 22.77052 | 19825 ft | 345 kts | 130° |
| 2026-05-06 07:01 | 42.97542 | 22.79406 | 19507 ft | 342 kts | 130° |
| 2026-05-06 07:01 | 42.96122 | 22.82005 | 19170 ft | 340 kts | 123° |
| 2026-05-06 07:01 | 42.94883 | 22.84742 | 18831 ft | 338 kts | 121° |
| 2026-05-06 07:01 | 42.93676 | 22.87490 | 18492 ft | 337 kts | 121° |
| 2026-05-06 07:02 | 42.92451 | 22.90214 | 18064 ft | 336 kts | 122° |
| 2026-05-06 07:02 | 42.91211 | 22.92908 | 17695 ft | 334 kts | 122° |
| 2026-05-06 07:02 | 42.89971 | 22.95575 | 17323 ft | 332 kts | 122° |
| 2026-05-06 07:02 | 42.88945 | 22.98363 | 16942 ft | 329 kts | 104° |
| 2026-05-06 07:03 | 42.88641 | 23.01427 | 16657 ft | 324 kts | 93° |
| 2026-05-06 07:03 | 42.88498 | 23.04478 | 16344 ft | 321 kts | 93° |
| 2026-05-06 07:03 | 42.88355 | 23.07465 | 16218 ft | 311 kts | 93° |
| 2026-05-06 07:03 | 42.88200 | 23.10371 | 16081 ft | 303 kts | 94° |
| 2026-05-06 07:04 | 42.88043 | 23.13190 | 15951 ft | 295 kts | 94° |
| 2026-05-06 07:04 | 42.87887 | 23.15918 | 15819 ft | 288 kts | 94° |
| 2026-05-06 07:04 | 42.87721 | 23.18616 | 15696 ft | 280 kts | 98° |
| 2026-05-06 07:04 | 42.87048 | 23.21042 | 15554 ft | 272 kts | 128° |
| 2026-05-06 07:05 | 42.85660 | 23.22707 | 15387 ft | 266 kts | 154° |
| 2026-05-06 07:05 | 42.83919 | 23.23478 | 15143 ft | 262 kts | 175° |
| 2026-05-06 07:05 | 42.82127 | 23.23406 | 14891 ft | 258 kts | 194° |
| 2026-05-06 07:05 | 42.80583 | 23.22322 | 14648 ft | 253 kts | 226° |
| 2026-05-06 07:06 | 42.79637 | 23.20330 | 14417 ft | 248 kts | 251° |
| 2026-05-06 07:06 | 42.79363 | 23.18069 | 14181 ft | 245 kts | 271° |
| 2026-05-06 07:06 | 42.79470 | 23.15760 | 13945 ft | 244 kts | 275° |
| 2026-05-06 07:06 | 42.79627 | 23.13457 | 13666 ft | 244 kts | 275° |
| 2026-05-06 07:07 | 42.79776 | 23.11170 | 13392 ft | 243 kts | 275° |
| 2026-05-06 07:07 | 42.79914 | 23.08895 | 13143 ft | 242 kts | 275° |
| 2026-05-06 07:07 | 42.80049 | 23.06599 | 12887 ft | 240 kts | 274° |
| 2026-05-06 07:07 | 42.80182 | 23.04340 | 12648 ft | 239 kts | 274° |
| 2026-05-06 07:08 | 42.80311 | 23.02093 | 12398 ft | 237 kts | 274° |
| 2026-05-06 07:08 | 42.80440 | 22.99863 | 12166 ft | 236 kts | 274° |
| 2026-05-06 07:08 | 42.80568 | 22.97636 | 11928 ft | 235 kts | 274° |
| 2026-05-06 07:08 | 42.80695 | 22.95411 | 11687 ft | 235 kts | 274° |
| 2026-05-06 07:09 | 42.80818 | 22.93192 | 11456 ft | 235 kts | 274° |
| 2026-05-06 07:09 | 42.80942 | 22.90979 | 11222 ft | 234 kts | 274° |
| 2026-05-06 07:09 | 42.81065 | 22.88768 | 10987 ft | 234 kts | 273° |
| 2026-05-06 07:09 | 42.81186 | 22.86560 | 10749 ft | 234 kts | 273° |
| 2026-05-06 07:10 | 42.81307 | 22.84354 | 10525 ft | 233 kts | 273° |
| 2026-05-06 07:10 | 42.81288 | 22.82156 | 10267 ft | 233 kts | 253° |
| 2026-05-06 07:10 | 42.80470 | 22.80309 | 10040 ft | 229 kts | 220° |
| 2026-05-06 07:10 | 42.79084 | 22.79290 | 9805 ft | 228 kts | 195° |
| 2026-05-06 07:11 | 42.77522 | 22.79003 | 9564 ft | 228 kts | 185° |
| 2026-05-06 07:11 | 42.75943 | 22.78872 | 9316 ft | 227 kts | 180° |
| 2026-05-06 07:11 | 42.74437 | 22.79440 | 9066 ft | 227 kts | 147° |
| 2026-05-06 07:11 | 42.73382 | 22.81025 | 8862 ft | 231 kts | 117° |
| 2026-05-06 07:12 | 42.72976 | 22.83127 | 8627 ft | 231 kts | 96° |
| 2026-05-06 07:12 | 42.72855 | 22.85303 | 8401 ft | 231 kts | 95° |
| 2026-05-06 07:12 | 42.72745 | 22.87483 | 8153 ft | 231 kts | 94° |
| 2026-05-06 07:12 | 42.72636 | 22.89661 | 7923 ft | 231 kts | 95° |
| 2026-05-06 07:13 | 42.72520 | 22.91837 | 7691 ft | 232 kts | 95° |
| 2026-05-06 07:13 | 42.72397 | 22.94048 | 7375 ft | 235 kts | 95° |
| 2026-05-06 07:13 | 42.72294 | 22.96217 | 7139 ft | 231 kts | 92° |
| 2026-05-06 07:13 | 42.72255 | 22.98371 | 6904 ft | 224 kts | 93° |
| 2026-05-06 07:14 | 42.72176 | 23.00451 | 6688 ft | 216 kts | 94° |
| 2026-05-06 07:14 | 42.72069 | 23.02441 | 6444 ft | 210 kts | 95° |
| 2026-05-06 07:14 | 42.71951 | 23.04392 | 6215 ft | 204 kts | 95° |
| 2026-05-06 07:14 | 42.71832 | 23.06281 | 5978 ft | 197 kts | 95° |
| 2026-05-06 07:15 | 42.71717 | 23.08100 | 5766 ft | 189 kts | 96° |
| 2026-05-06 07:15 | 42.71607 | 23.09846 | 5581 ft | 183 kts | 96° |
| 2026-05-06 07:15 | 42.71499 | 23.11559 | 5411 ft | 180 kts | 95° |
| 2026-05-06 07:15 | 42.71393 | 23.13256 | 5250 ft | 180 kts | 95° |
| 2026-05-06 07:16 | 42.71285 | 23.14955 | 5071 ft | 181 kts | 95° |
| 2026-05-06 07:16 | 42.71179 | 23.16660 | 4879 ft | 180 kts | 95° |
| 2026-05-06 07:16 | 42.71074 | 23.18348 | 4668 ft | 178 kts | 95° |
| 2026-05-06 07:16 | 42.70972 | 23.19985 | 4587 ft | 170 kts | 95° |
| 2026-05-06 07:17 | 42.70870 | 23.21632 | 4394 ft | 178 kts | 95° |
| 2026-05-06 07:17 | 42.70769 | 23.23266 | 4195 ft | 167 kts | 95° |
| 2026-05-06 07:17 | 42.70673 | 23.24807 | 3963 ft | 162 kts | 95° |
| 2026-05-06 07:17 | 42.70579 | 23.26331 | 3738 ft | 163 kts | 95° |
| 2026-05-06 07:18 | 42.70487 | 23.27864 | 3525 ft | 163 kts | 94° |
| 2026-05-06 07:18 | 42.70393 | 23.29394 | 3291 ft | 162 kts | 94° |
| 2026-05-06 07:18 | 42.70300 | 23.30901 | 3071 ft | 157 kts | 94° |
| 2026-05-06 07:18 | 42.70204 | 23.32344 | 2869 ft | 151 kts | 98° |
| 2026-05-06 07:19 | 42.70084 | 23.33754 | 2690 ft | 151 kts | 95° |
| 2026-05-06 07:19 | 42.70006 | 23.35182 | 2498 ft | 151 kts | 95° |
| 2026-05-06 07:19 | 42.69935 | 23.36615 | 2277 ft | 152 kts | 94° |
| 2026-05-06 07:19 | 42.69861 | 23.38038 | 2064 ft | 150 kts | 95° |
| 2026-05-06 07:20 | 42.69782 | 23.39444 | 1868 ft | 149 kts | 94° |
| 2026-05-06 07:20 | 42.69701 | 23.40827 | 1752 ft | 141 kts | 94° |
| 2026-05-06 07:20 | 42.69633 | 23.41978 | 1752 ft | 98 kts | 95° |
| 2026-05-06 07:20 | 42.69593 | 23.42475 | 1746 ft | 36 kts | 107° |
| 2026-05-06 07:21 | 42.69504 | 23.42710 | 1748 ft | 16 kts | 128° |
| 2026-05-06 07:21 | 42.69415 | 23.42720 | 1750 ft | 15 kts | 234° |
| 2026-05-06 07:21 | 42.69409 | 23.42585 | 1749 ft | 14 kts | 274° |
| 2026-05-06 07:21 | 42.69417 | 23.42453 | 1752 ft | 14 kts | 274° |
| 2026-05-06 07:22 | 42.69424 | 23.42324 | 1750 ft | 13 kts | 275° |
| 2026-05-06 07:22 | 42.69432 | 23.42200 | 1752 ft | 14 kts | 275° |
| 2026-05-06 07:22 | 42.69440 | 23.42067 | 1752 ft | 15 kts | 274° |
| 2026-05-06 07:22 | 42.69448 | 23.41921 | 1747 ft | 16 kts | 274° |
| 2026-05-06 07:23 | 42.69456 | 23.41767 | 1752 ft | 17 kts | 274° |
| 2026-05-06 07:23 | 42.69464 | 23.41608 | 1752 ft | 17 kts | 267° |
| 2026-05-06 07:23 | 42.69376 | 23.41526 | 1745 ft | 17 kts | 185° |
| 2026-05-06 07:23 | 42.69287 | 23.41455 | 1750 ft | 16 kts | 261° |
| 2026-05-06 07:24 | 42.69294 | 23.41300 | 1749 ft | 16 kts | 276° |
| 2026-05-06 07:24 | 42.69261 | 23.41165 | 1750 ft | 16 kts | 205° |
| 2026-05-06 07:24 | 42.69160 | 23.41132 | 1752 ft | 14 kts | 201° |
| 2026-05-06 07:24 | 42.69108 | 23.41021 | 1744 ft | 14 kts | 251° |
| 2026-05-06 07:25 | 42.69079 | 23.40897 | 1752 ft | 14 kts | 252° |
| 2026-05-06 07:25 | 42.69045 | 23.40835 | 1745 ft | 7 kts | 177° |
| 2026-05-06 07:25 | 42.68998 | 23.40854 | 1747 ft | 7 kts | 161° |
| 2026-05-06 07:25 | 42.68976 | 23.40864 | 1749 ft | 0 kts | 162° |